sensor_id;sensor_type;location;lat;lon;timestamp;pressure;altitude;pressure_sealevel;temperature;humidity
61337;BME280;47212;41.326;2.104;2023-06-14T00:04:59;100699.88;;;22.24;63.34
61337;BME280;47212;41.326;2.104;2023-06-14T00:10:04;100695.22;;;22.16;63.66
61337;BME280;47212;41.326;2.104;2023-06-14T00:15:08;100700.78;;;22.16;63.80
61337;BME280;47212;41.326;2.104;2023-06-14T00:20:13;100706.31;;;22.16;63.53
61337;BME280;47212;41.326;2.104;2023-06-14T00:25:16;100712.53;;;22.13;63.81
61337;BME280;47212;41.326;2.104;2023-06-14T00:30:35;100709.97;;;22.08;63.61
61337;BME280;47212;41.326;2.104;2023-06-14T00:35:37;100710.66;;;22.05;63.65
61337;BME280;47212;41.326;2.104;2023-06-14T00:40:40;100705.13;;;22.05;63.67
61337;BME280;47212;41.326;2.104;2023-06-14T00:45:42;100697.63;;;22.06;63.37
61337;BME280;47212;41.326;2.104;2023-06-14T00:50:45;100703.50;;;22.04;63.38
61337;BME280;47212;41.326;2.104;2023-06-14T00:55:51;100698.28;;;22.03;63.42
61337;BME280;47212;41.326;2.104;2023-06-14T01:00:53;100698.59;;;22.01;63.79
61337;BME280;47212;41.326;2.104;2023-06-14T01:17:02;100700.03;;;21.86;65.09
61337;BME280;47212;41.326;2.104;2023-06-14T01:22:09;100708.22;;;21.83;64.88
61337;BME280;47212;41.326;2.104;2023-06-14T01:27:14;100705.66;;;21.78;65.38
61337;BME280;47212;41.326;2.104;2023-06-14T01:32:18;100705.38;;;21.71;65.79
61337;BME280;47212;41.326;2.104;2023-06-14T01:37:28;100699.38;;;21.69;66.59
61337;BME280;47212;41.326;2.104;2023-06-14T01:42:36;100706.06;;;21.68;65.88
61337;BME280;47212;41.326;2.104;2023-06-14T01:47:41;100709.94;;;21.67;65.61
61337;BME280;47212;41.326;2.104;2023-06-14T01:52:47;100715.03;;;21.65;65.08
61337;BME280;47212;41.326;2.104;2023-06-14T01:57:54;100713.88;;;21.66;65.30
61337;BME280;47212;41.326;2.104;2023-06-14T02:02:57;100712.25;;;21.65;65.55
61337;BME280;47212;41.326;2.104;2023-06-14T02:08:07;100706.25;;;21.62;65.68
61337;BME280;47212;41.326;2.104;2023-06-14T02:13:24;100716.03;;;21.60;65.86
61337;BME280;47212;41.326;2.104;2023-06-14T02:18:26;100713.59;;;21.58;65.99
61337;BME280;47212;41.326;2.104;2023-06-14T02:23:30;100715.09;;;21.56;66.19
61337;BME280;47212;41.326;2.104;2023-06-14T02:28:45;100713.81;;;21.53;66.47
61337;BME280;47212;41.326;2.104;2023-06-14T02:34:14;100718.72;;;21.48;66.61
61337;BME280;47212;41.326;2.104;2023-06-14T02:39:18;100726.22;;;21.47;66.71
61337;BME280;47212;41.326;2.104;2023-06-14T02:44:26;100711.44;;;21.43;67.38
61337;BME280;47212;41.326;2.104;2023-06-14T02:49:32;100717.63;;;21.40;67.57
61337;BME280;47212;41.326;2.104;2023-06-14T02:54:35;100725.47;;;21.38;67.42
61337;BME280;47212;41.326;2.104;2023-06-14T02:59:37;100711.47;;;21.35;67.70
61337;BME280;47212;41.326;2.104;2023-06-14T03:04:40;100723.56;;;21.30;67.78
61337;BME280;47212;41.326;2.104;2023-06-14T03:09:50;100737.59;;;21.25;68.04
61337;BME280;47212;41.326;2.104;2023-06-14T03:14:58;100732.69;;;21.22;68.35
61337;BME280;47212;41.326;2.104;2023-06-14T03:20:10;100746.25;;;21.23;68.06
61337;BME280;47212;41.326;2.104;2023-06-14T03:25:20;100746.06;;;21.20;68.71
61337;BME280;47212;41.326;2.104;2023-06-14T03:30:26;100753.88;;;21.18;68.54
61337;BME280;47212;41.326;2.104;2023-06-14T03:35:53;100746.72;;;21.17;69.09
61337;BME280;47212;41.326;2.104;2023-06-14T03:41:00;100752.59;;;21.15;68.54
61337;BME280;47212;41.326;2.104;2023-06-14T03:46:03;100757.66;;;21.13;68.58
61337;BME280;47212;41.326;2.104;2023-06-14T03:51:09;100746.91;;;21.12;68.55
61337;BME280;47212;41.326;2.104;2023-06-14T03:56:13;100758.00;;;21.12;68.84
61337;BME280;47212;41.326;2.104;2023-06-14T04:07:17;100770.88;;;21.08;69.22
61337;BME280;47212;41.326;2.104;2023-06-14T04:12:23;100765.34;;;21.08;69.32
61337;BME280;47212;41.326;2.104;2023-06-14T04:17:27;100779.66;;;21.10;68.97
61337;BME280;47212;41.326;2.104;2023-06-14T04:22:32;100774.94;;;21.10;69.19
61337;BME280;47212;41.326;2.104;2023-06-14T04:27:35;100781.59;;;21.09;69.18
61337;BME280;47212;41.326;2.104;2023-06-14T04:32:39;100783.22;;;21.10;69.09
61337;BME280;47212;41.326;2.104;2023-06-14T04:37:44;100784.53;;;21.13;69.21
61337;BME280;47212;41.326;2.104;2023-06-14T04:42:47;100791.69;;;21.14;69.31
61337;BME280;47212;41.326;2.104;2023-06-14T04:47:55;100797.22;;;21.14;69.21
61337;BME280;47212;41.326;2.104;2023-06-14T04:53:02;100793.31;;;21.15;69.28
61337;BME280;47212;41.326;2.104;2023-06-14T04:58:05;100804.03;;;21.16;69.25
61337;BME280;47212;41.326;2.104;2023-06-14T05:03:09;100814.13;;;21.21;69.28
61337;BME280;47212;41.326;2.104;2023-06-14T05:08:16;100820.66;;;21.25;69.08
61337;BME280;47212;41.326;2.104;2023-06-14T05:13:19;100829.59;;;21.30;68.89
61337;BME280;47212;41.326;2.104;2023-06-14T05:18:25;100825.81;;;21.35;68.54
61337;BME280;47212;41.326;2.104;2023-06-14T05:23:27;100830.03;;;21.41;68.25
61337;BME280;47212;41.326;2.104;2023-06-14T05:28:30;100813.88;;;21.43;68.25
61337;BME280;47212;41.326;2.104;2023-06-14T05:33:33;100827.06;;;21.46;68.13
61337;BME280;47212;41.326;2.104;2023-06-14T05:38:35;100822.47;;;21.50;68.07
61337;BME280;47212;41.326;2.104;2023-06-14T05:43:37;100827.34;;;21.53;68.08
61337;BME280;47212;41.326;2.104;2023-06-14T05:48:42;100826.84;;;21.60;67.71
61337;BME280;47212;41.326;2.104;2023-06-14T05:53:45;100832.34;;;21.69;67.51
61337;BME280;47212;41.326;2.104;2023-06-14T05:58:49;100835.06;;;21.77;67.19
61337;BME280;47212;41.326;2.104;2023-06-14T06:03:53;100850.16;;;21.88;66.95
61337;BME280;47212;41.326;2.104;2023-06-14T06:08:56;100851.38;;;22.00;66.33
61337;BME280;47212;41.326;2.104;2023-06-14T06:13:59;100858.94;;;22.20;65.84
61337;BME280;47212;41.326;2.104;2023-06-14T06:19:01;100844.78;;;22.34;64.55
61337;BME280;47212;41.326;2.104;2023-06-14T06:24:05;100853.84;;;22.43;63.58
61337;BME280;47212;41.326;2.104;2023-06-14T06:29:07;100849.59;;;22.45;63.18
61337;BME280;47212;41.326;2.104;2023-06-14T06:34:12;100854.78;;;22.47;62.92
61337;BME280;47212;41.326;2.104;2023-06-14T06:39:17;100865.50;;;22.57;62.77
61337;BME280;47212;41.326;2.104;2023-06-14T06:44:19;100871.78;;;22.66;61.54
61337;BME280;47212;41.326;2.104;2023-06-14T06:49:24;100875.59;;;22.82;61.10
61337;BME280;47212;41.326;2.104;2023-06-14T06:54:26;100878.47;;;22.86;60.80
61337;BME280;47212;41.326;2.104;2023-06-14T06:59:29;100881.41;;;23.02;60.15
61337;BME280;47212;41.326;2.104;2023-06-14T07:04:34;100887.34;;;23.12;59.79
61337;BME280;47212;41.326;2.104;2023-06-14T07:09:36;100898.63;;;23.40;58.94
61337;BME280;47212;41.326;2.104;2023-06-14T07:14:39;100908.50;;;23.50;59.03
61337;BME280;47212;41.326;2.104;2023-06-14T07:19:44;100901.94;;;23.55;58.28
61337;BME280;47212;41.326;2.104;2023-06-14T07:24:48;100913.53;;;23.69;58.25
61337;BME280;47212;41.326;2.104;2023-06-14T07:29:57;100917.25;;;23.73;58.38
61337;BME280;47212;41.326;2.104;2023-06-14T07:35:01;100914.00;;;23.71;58.38
61337;BME280;47212;41.326;2.104;2023-06-14T07:40:11;100912.59;;;23.77;58.16
61337;BME280;47212;41.326;2.104;2023-06-14T07:45:14;100916.31;;;23.81;57.64
61337;BME280;47212;41.326;2.104;2023-06-14T07:50:22;100920.00;;;23.97;57.39
61337;BME280;47212;41.326;2.104;2023-06-14T07:55:24;100919.91;;;24.30;56.59
61337;BME280;47212;41.326;2.104;2023-06-14T08:00:31;100909.63;;;24.59;55.24
61337;BME280;47212;41.326;2.104;2023-06-14T08:05:33;100891.59;;;24.96;55.73
61337;BME280;47212;41.326;2.104;2023-06-14T08:10:37;100918.06;;;25.30;54.62
61337;BME280;47212;41.326;2.104;2023-06-14T08:15:39;100925.53;;;25.42;54.33
61337;BME280;47212;41.326;2.104;2023-06-14T08:20:50;100929.84;;;25.55;53.84
61337;BME280;47212;41.326;2.104;2023-06-14T08:25:52;100925.91;;;25.88;52.84
61337;BME280;47212;41.326;2.104;2023-06-14T08:30:54;100913.41;;;25.82;53.24
61337;BME280;47212;41.326;2.104;2023-06-14T08:35:57;100932.31;;;25.73;53.20
61337;BME280;47212;41.326;2.104;2023-06-14T08:41:00;100916.66;;;25.84;52.55
61337;BME280;47212;41.326;2.104;2023-06-14T08:46:04;100921.06;;;25.85;52.96
61337;BME280;47212;41.326;2.104;2023-06-14T08:51:09;100927.78;;;26.15;52.29
61337;BME280;47212;41.326;2.104;2023-06-14T08:56:12;100928.03;;;26.26;51.23
61337;BME280;47212;41.326;2.104;2023-06-14T09:01:15;100930.09;;;26.29;50.50
61337;BME280;47212;41.326;2.104;2023-06-14T09:06:19;100922.78;;;26.40;50.28
61337;BME280;47212;41.326;2.104;2023-06-14T09:11:25;100923.09;;;26.54;50.11
61337;BME280;47212;41.326;2.104;2023-06-14T09:16:28;100909.44;;;26.69;49.96
61337;BME280;47212;41.326;2.104;2023-06-14T09:21:36;100913.91;;;26.73;49.22
61337;BME280;47212;41.326;2.104;2023-06-14T09:26:39;100924.13;;;26.65;49.70
61337;BME280;47212;41.326;2.104;2023-06-14T09:31:42;100929.06;;;26.72;49.36
61337;BME280;47212;41.326;2.104;2023-06-14T09:36:44;100942.59;;;26.89;49.48
61337;BME280;47212;41.326;2.104;2023-06-14T09:41:47;100939.69;;;27.02;49.33
61337;BME280;47212;41.326;2.104;2023-06-14T09:46:49;100937.25;;;27.00;48.92
61337;BME280;47212;41.326;2.104;2023-06-14T09:51:52;100937.16;;;26.96;49.54
61337;BME280;47212;41.326;2.104;2023-06-14T09:56:56;100944.59;;;27.08;49.28
61337;BME280;47212;41.326;2.104;2023-06-14T10:01:58;100949.59;;;27.18;48.93
61337;BME280;47212;41.326;2.104;2023-06-14T10:07:03;100955.72;;;27.05;48.89
61337;BME280;47212;41.326;2.104;2023-06-14T10:12:07;100948.97;;;26.71;48.95
61337;BME280;47212;41.326;2.104;2023-06-14T10:17:12;100955.13;;;26.60;48.91
61337;BME280;47212;41.326;2.104;2023-06-14T10:22:32;100952.75;;;26.43;47.94
61337;BME280;47212;41.326;2.104;2023-06-14T10:27:36;100956.66;;;26.23;48.84
61337;BME280;47212;41.326;2.104;2023-06-14T10:33:07;100959.44;;;26.39;47.33
61337;BME280;47212;41.326;2.104;2023-06-14T10:38:11;100964.31;;;26.61;47.30
61337;BME280;47212;41.326;2.104;2023-06-14T10:43:26;100955.06;;;26.57;46.30
61337;BME280;47212;41.326;2.104;2023-06-14T10:48:31;100956.28;;;26.40;46.73
61337;BME280;47212;41.326;2.104;2023-06-14T10:53:42;100963.03;;;26.39;46.13
61337;BME280;47212;41.326;2.104;2023-06-14T10:58:45;100964.50;;;26.33;47.87
61337;BME280;47212;41.326;2.104;2023-06-14T11:03:53;100973.19;;;26.31;47.04
61337;BME280;47212;41.326;2.104;2023-06-14T11:09:24;100977.00;;;26.23;47.16
61337;BME280;47212;41.326;2.104;2023-06-14T11:14:32;100985.09;;;25.97;48.20
61337;BME280;47212;41.326;2.104;2023-06-14T11:19:34;100976.66;;;25.78;48.84
61337;BME280;47212;41.326;2.104;2023-06-14T11:24:36;100974.50;;;25.71;48.35
61337;BME280;47212;41.326;2.104;2023-06-14T11:29:38;100981.41;;;25.77;48.74
61337;BME280;47212;41.326;2.104;2023-06-14T11:34:40;100991.50;;;25.82;49.69
61337;BME280;47212;41.326;2.104;2023-06-14T11:39:45;100979.97;;;25.83;48.53
61337;BME280;47212;41.326;2.104;2023-06-14T11:44:54;100986.44;;;25.87;47.52
61337;BME280;47212;41.326;2.104;2023-06-14T11:50:09;100986.25;;;25.96;48.44
61337;BME280;47212;41.326;2.104;2023-06-14T11:55:13;100995.91;;;26.14;47.66
61337;BME280;47212;41.326;2.104;2023-06-14T12:00:25;100995.28;;;26.21;48.78
61337;BME280;47212;41.326;2.104;2023-06-14T12:06:07;100981.03;;;26.26;48.92
61337;BME280;47212;41.326;2.104;2023-06-14T12:11:13;100970.25;;;26.40;49.63
61337;BME280;47212;41.326;2.104;2023-06-14T12:16:15;100982.22;;;26.41;50.04
61337;BME280;47212;41.326;2.104;2023-06-14T12:21:22;100971.28;;;26.51;50.91
61337;BME280;47212;41.326;2.104;2023-06-14T12:26:25;100970.06;;;26.68;49.82
61337;BME280;47212;41.326;2.104;2023-06-14T12:31:31;100973.94;;;26.63;49.26
61337;BME280;47212;41.326;2.104;2023-06-14T12:36:34;100971.22;;;26.48;48.77
61337;BME280;47212;41.326;2.104;2023-06-14T12:41:42;100975.53;;;26.29;49.77
61337;BME280;47212;41.326;2.104;2023-06-14T12:46:44;100970.97;;;26.37;49.51
61337;BME280;47212;41.326;2.104;2023-06-14T12:51:49;100957.25;;;26.48;48.85
61337;BME280;47212;41.326;2.104;2023-06-14T12:56:53;100956.06;;;26.49;49.49
61337;BME280;47212;41.326;2.104;2023-06-14T13:02:19;100965.84;;;26.39;47.67
61337;BME280;47212;41.326;2.104;2023-06-14T13:07:29;100962.78;;;26.13;48.76
61337;BME280;47212;41.326;2.104;2023-06-14T13:12:31;100965.34;;;26.02;49.37
61337;BME280;47212;41.326;2.104;2023-06-14T13:17:35;100952.44;;;25.97;49.41
61337;BME280;47212;41.326;2.104;2023-06-14T13:22:40;100949.47;;;25.90;50.11
61337;BME280;47212;41.326;2.104;2023-06-14T13:27:44;100955.41;;;25.73;49.42
61337;BME280;47212;41.326;2.104;2023-06-14T13:32:52;100946.69;;;25.75;50.81
61337;BME280;47212;41.326;2.104;2023-06-14T13:37:54;100955.97;;;25.79;51.42
61337;BME280;47212;41.326;2.104;2023-06-14T13:42:56;100969.53;;;25.96;51.30
61337;BME280;47212;41.326;2.104;2023-06-14T13:47:58;100950.38;;;25.94;51.89
61337;BME280;47212;41.326;2.104;2023-06-14T13:53:01;100947.06;;;26.05;51.03
61337;BME280;47212;41.326;2.104;2023-06-14T13:58:04;100963.94;;;26.27;50.38
61337;BME280;47212;41.326;2.104;2023-06-14T14:03:06;100954.03;;;26.30;49.70
61337;BME280;47212;41.326;2.104;2023-06-14T14:08:10;100954.22;;;26.37;49.50
61337;BME280;47212;41.326;2.104;2023-06-14T14:13:13;100963.19;;;26.46;49.36
61337;BME280;47212;41.326;2.104;2023-06-14T14:18:16;100957.63;;;26.46;49.64
61337;BME280;47212;41.326;2.104;2023-06-14T14:23:19;100965.53;;;26.44;50.69
61337;BME280;47212;41.326;2.104;2023-06-14T14:28:22;100958.66;;;26.57;50.93
61337;BME280;47212;41.326;2.104;2023-06-14T14:33:25;100964.69;;;26.59;49.56
61337;BME280;47212;41.326;2.104;2023-06-14T14:38:27;100970.41;;;26.47;48.31
61337;BME280;47212;41.326;2.104;2023-06-14T14:43:29;100967.97;;;26.30;47.68
61337;BME280;47212;41.326;2.104;2023-06-14T14:48:33;100968.63;;;26.39;47.53
61337;BME280;47212;41.326;2.104;2023-06-14T14:53:35;100972.75;;;26.45;46.96
61337;BME280;47212;41.326;2.104;2023-06-14T14:58:37;100976.56;;;26.37;46.54
61337;BME280;47212;41.326;2.104;2023-06-14T15:03:42;100966.56;;;26.36;47.63
61337;BME280;47212;41.326;2.104;2023-06-14T15:08:50;100963.13;;;26.43;47.57
61337;BME280;47212;41.326;2.104;2023-06-14T15:13:53;100967.00;;;26.38;47.75
61337;BME280;47212;41.326;2.104;2023-06-14T15:18:55;100975.56;;;26.14;46.66
61337;BME280;47212;41.326;2.104;2023-06-14T15:23:57;100959.63;;;25.98;47.08
61337;BME280;47212;41.326;2.104;2023-06-14T15:28:59;100972.06;;;25.85;49.04
61337;BME280;47212;41.326;2.104;2023-06-14T15:34:01;100975.28;;;25.87;49.46
61337;BME280;47212;41.326;2.104;2023-06-14T15:39:04;100979.34;;;25.90;49.89
61337;BME280;47212;41.326;2.104;2023-06-14T15:44:06;100980.78;;;25.84;49.80
61337;BME280;47212;41.326;2.104;2023-06-14T15:49:09;100977.19;;;25.83;49.14
61337;BME280;47212;41.326;2.104;2023-06-14T15:54:15;100984.28;;;25.96;47.86
61337;BME280;47212;41.326;2.104;2023-06-14T15:59:17;100983.50;;;26.12;47.68
61337;BME280;47212;41.326;2.104;2023-06-14T16:04:21;100978.38;;;26.14;48.87
61337;BME280;47212;41.326;2.104;2023-06-14T16:09:23;100991.25;;;26.02;47.95
61337;BME280;47212;41.326;2.104;2023-06-14T16:14:25;100989.88;;;25.96;48.28
61337;BME280;47212;41.326;2.104;2023-06-14T16:19:28;101002.47;;;25.90;46.77
61337;BME280;47212;41.326;2.104;2023-06-14T16:24:34;100982.69;;;25.80;47.72
61337;BME280;47212;41.326;2.104;2023-06-14T16:29:39;101000.47;;;25.75;51.50
61337;BME280;47212;41.326;2.104;2023-06-14T16:34:56;101001.91;;;25.69;52.53
61337;BME280;47212;41.326;2.104;2023-06-14T16:39:59;101003.53;;;25.70;52.80
61337;BME280;47212;41.326;2.104;2023-06-14T16:45:01;101002.88;;;25.61;52.48
61337;BME280;47212;41.326;2.104;2023-06-14T16:50:04;101005.97;;;25.44;54.17
61337;BME280;47212;41.326;2.104;2023-06-14T16:55:07;101019.44;;;25.26;53.99
61337;BME280;47212;41.326;2.104;2023-06-14T17:00:09;101006.91;;;25.20;54.66
61337;BME280;47212;41.326;2.104;2023-06-14T17:05:12;100999.91;;;25.26;55.22
61337;BME280;47212;41.326;2.104;2023-06-14T17:10:39;101015.31;;;25.35;54.82
61337;BME280;47212;41.326;2.104;2023-06-14T17:15:47;101016.69;;;25.42;56.17
61337;BME280;47212;41.326;2.104;2023-06-14T17:20:49;101022.91;;;25.51;55.18
61337;BME280;47212;41.326;2.104;2023-06-14T17:26:01;101017.31;;;25.51;57.33
61337;BME280;47212;41.326;2.104;2023-06-14T17:31:05;101023.97;;;25.46;58.22
61337;BME280;47212;41.326;2.104;2023-06-14T17:36:07;101018.41;;;25.46;59.28
61337;BME280;47212;41.326;2.104;2023-06-14T17:41:22;101020.63;;;25.40;62.41
61337;BME280;47212;41.326;2.104;2023-06-14T17:46:25;101031.22;;;25.35;61.24
61337;BME280;47212;41.326;2.104;2023-06-14T17:51:27;101044.16;;;25.27;60.72
61337;BME280;47212;41.326;2.104;2023-06-14T17:56:29;101063.69;;;25.15;61.07
61337;BME280;47212;41.326;2.104;2023-06-14T18:01:33;101057.19;;;25.11;61.51
61337;BME280;47212;41.326;2.104;2023-06-14T18:06:35;101052.56;;;25.15;61.79
61337;BME280;47212;41.326;2.104;2023-06-14T18:11:37;101066.94;;;25.17;62.73
61337;BME280;47212;41.326;2.104;2023-06-14T18:16:40;101072.97;;;25.07;63.17
61337;BME280;47212;41.326;2.104;2023-06-14T18:21:44;101074.59;;;24.96;64.03
61337;BME280;47212;41.326;2.104;2023-06-14T18:26:46;101068.00;;;24.88;62.50
61337;BME280;47212;41.326;2.104;2023-06-14T18:31:48;101080.88;;;24.81;61.06
61337;BME280;47212;41.326;2.104;2023-06-14T18:36:51;101083.34;;;24.70;60.61
61337;BME280;47212;41.326;2.104;2023-06-14T18:41:55;101099.94;;;24.66;60.10
61337;BME280;47212;41.326;2.104;2023-06-14T18:46:57;101101.09;;;24.65;60.59
61337;BME280;47212;41.326;2.104;2023-06-14T18:51:59;101098.19;;;24.62;60.82
61337;BME280;47212;41.326;2.104;2023-06-14T18:57:02;101108.84;;;24.60;60.45
61337;BME280;47212;41.326;2.104;2023-06-14T19:02:04;101114.78;;;24.58;60.18
61337;BME280;47212;41.326;2.104;2023-06-14T19:07:11;101109.91;;;24.55;59.89
61337;BME280;47212;41.326;2.104;2023-06-14T19:12:13;101118.50;;;24.50;61.22
61337;BME280;47212;41.326;2.104;2023-06-14T19:17:15;101131.94;;;24.48;61.93
61337;BME280;47212;41.326;2.104;2023-06-14T19:22:18;101148.41;;;24.41;63.72
61337;BME280;47212;41.326;2.104;2023-06-14T19:27:23;101147.00;;;24.35;64.97
61337;BME280;47212;41.326;2.104;2023-06-14T19:32:25;101147.22;;;24.30;65.97
61337;BME280;47212;41.326;2.104;2023-06-14T19:37:27;101160.66;;;24.28;66.95
61337;BME280;47212;41.326;2.104;2023-06-14T19:42:29;101159.81;;;24.27;67.48
61337;BME280;47212;41.326;2.104;2023-06-14T19:47:34;101169.97;;;24.23;68.31
61337;BME280;47212;41.326;2.104;2023-06-14T19:52:40;101189.66;;;24.18;69.76
61337;BME280;47212;41.326;2.104;2023-06-14T19:57:42;101193.47;;;24.13;70.46
61337;BME280;47212;41.326;2.104;2023-06-14T20:02:44;101191.03;;;24.12;70.85
61337;BME280;47212;41.326;2.104;2023-06-14T20:07:52;101203.66;;;24.09;70.58
61337;BME280;47212;41.326;2.104;2023-06-14T20:12:58;101209.22;;;24.09;70.60
61337;BME280;47212;41.326;2.104;2023-06-14T20:18:03;101226.72;;;24.10;70.47
61337;BME280;47212;41.326;2.104;2023-06-14T20:23:09;101240.63;;;24.10;70.56
61337;BME280;47212;41.326;2.104;2023-06-14T20:28:14;101246.53;;;24.08;70.12
61337;BME280;47212;41.326;2.104;2023-06-14T20:33:16;101253.25;;;24.07;70.38
61337;BME280;47212;41.326;2.104;2023-06-14T20:38:22;101261.00;;;24.02;71.33
61337;BME280;47212;41.326;2.104;2023-06-14T20:43:24;101270.50;;;24.01;71.25
61337;BME280;47212;41.326;2.104;2023-06-14T20:48:36;101272.47;;;24.00;72.51
61337;BME280;47212;41.326;2.104;2023-06-14T20:53:38;101284.41;;;24.01;71.44
61337;BME280;47212;41.326;2.104;2023-06-14T20:58:41;101281.94;;;23.99;72.17
61337;BME280;47212;41.326;2.104;2023-06-14T21:03:46;101285.22;;;24.01;72.01
61337;BME280;47212;41.326;2.104;2023-06-14T21:08:48;101290.78;;;24.01;72.13
61337;BME280;47212;41.326;2.104;2023-06-14T21:13:56;101290.78;;;24.01;72.88
61337;BME280;47212;41.326;2.104;2023-06-14T21:18:58;101304.69;;;24.01;73.33
61337;BME280;47212;41.326;2.104;2023-06-14T21:24:00;101311.88;;;24.02;73.57
61337;BME280;47212;41.326;2.104;2023-06-14T21:29:03;101311.88;;;24.02;73.18
61337;BME280;47212;41.326;2.104;2023-06-14T21:34:06;101316.63;;;24.02;72.08
61337;BME280;47212;41.326;2.104;2023-06-14T21:39:08;101321.84;;;24.03;70.48
61337;BME280;47212;41.326;2.104;2023-06-14T21:44:10;101319.88;;;24.04;69.51
61337;BME280;47212;41.326;2.104;2023-06-14T21:49:13;101326.25;;;24.04;68.45
61337;BME280;47212;41.326;2.104;2023-06-14T21:54:15;101332.00;;;23.99;67.36
61337;BME280;47212;41.326;2.104;2023-06-14T21:59:17;101336.75;;;23.99;66.81
61337;BME280;47212;41.326;2.104;2023-06-14T22:04:19;101335.94;;;23.98;66.73
61337;BME280;47212;41.326;2.104;2023-06-14T22:09:21;101331.53;;;23.97;66.86
61337;BME280;47212;41.326;2.104;2023-06-14T22:14:24;101341.03;;;23.96;66.82
61337;BME280;47212;41.326;2.104;2023-06-14T22:19:27;101334.50;;;23.92;66.96
61337;BME280;47212;41.326;2.104;2023-06-14T22:24:29;101351.53;;;23.91;67.31
61337;BME280;47212;41.326;2.104;2023-06-14T22:29:34;101354.66;;;23.89;67.21
61337;BME280;47212;41.326;2.104;2023-06-14T22:34:41;101357.63;;;23.84;67.08
61337;BME280;47212;41.326;2.104;2023-06-14T22:39:46;101358.31;;;23.81;67.13
61337;BME280;47212;41.326;2.104;2023-06-14T22:44:49;101356.69;;;23.80;67.34
61337;BME280;47212;41.326;2.104;2023-06-14T22:50:04;101353.75;;;23.76;67.27
61337;BME280;47212;41.326;2.104;2023-06-14T22:55:11;101346.91;;;23.74;67.44
61337;BME280;47212;41.326;2.104;2023-06-14T23:00:14;101359.50;;;23.71;67.99
61337;BME280;47212;41.326;2.104;2023-06-14T23:05:17;101363.44;;;23.70;67.72
61337;BME280;47212;41.326;2.104;2023-06-14T23:10:20;101352.19;;;23.67;68.10
61337;BME280;47212;41.326;2.104;2023-06-14T23:15:25;101348.09;;;23.64;68.33
61337;BME280;47212;41.326;2.104;2023-06-14T23:20:30;101355.63;;;23.64;68.60
61337;BME280;47212;41.326;2.104;2023-06-14T23:25:36;101341.75;;;23.64;68.96
61337;BME280;47212;41.326;2.104;2023-06-14T23:30:42;101349.25;;;23.63;69.43
61337;BME280;47212;41.326;2.104;2023-06-14T23:35:47;101341.25;;;23.62;69.29
61337;BME280;47212;41.326;2.104;2023-06-14T23:40:49;101344.03;;;23.62;70.07
61337;BME280;47212;41.326;2.104;2023-06-14T23:45:53;101341.94;;;23.59;70.82
61337;BME280;47212;41.326;2.104;2023-06-14T23:50:57;101337.53;;;23.58;71.42
61337;BME280;47212;41.326;2.104;2023-06-14T23:56:03;101345.38;;;23.56;71.94
